Time;durP1;ratioP1;P1;durP2;ratioP2;P2;SDS_P1;SDS_P2;PMS_P1;PMS_P2;Temp;Humidity;BMP_temperature;BMP_pressure;BME280_temperature;BME280_humidity;BME280_pressure;Samples;Min_cycle;Max_cycle;Signal;HPM_P1;HPM_P2
2022/01/12 00:01:16;;;;;;;8.17;3.43;;;;;;;-3.70;94.59;100332.97;5090670;28;20471;-69
2022/01/12 00:03:45;;;;;;;3.43;2.07;;;;;;;-3.74;94.61;100332.97;5090685;28;20547;-61
2022/01/12 00:06:13;;;;;;;8.83;3.73;;;;;;;-3.68;94.67;100330.50;5090302;28;20494;-60
2022/01/12 00:08:40;;;;;;;6.40;3.60;;;;;;;-3.66;95.14;100342.19;5092692;28;20451;-68
2022/01/12 00:11:08;;;;;;;3.20;2.00;;;;;;;-3.65;94.46;100340.50;5094649;28;20494;-68
2022/01/12 00:13:35;;;;;;;4.13;1.87;;;;;;;-3.73;94.29;100342.97;5094440;28;20933;-69
2022/01/12 00:16:04;;;;;;;5.97;2.73;;;;;;;-3.68;94.70;100348.00;5094184;28;20480;-60
2022/01/12 00:18:31;;;;;;;7.37;3.40;;;;;;;-3.63;94.95;100348.88;5094165;28;20444;-68
2022/01/12 00:21:00;;;;;;;3.17;1.67;;;;;;;-3.63;95.50;100348.03;5094477;28;20521;-68
2022/01/12 00:23:27;;;;;;;9.97;4.50;;;;;;;-3.55;96.03;100352.25;5094498;28;20444;-69
2022/01/12 00:26:01;;;;;;;7.83;3.77;;;;;;;-3.62;96.15;100355.53;5094040;28;20476;-61
2022/01/12 00:34:00;;;;;;;8.77;4.17;;;;;;;-3.64;95.61;100362.16;5094123;28;20435;-59
2022/01/12 00:36:29;;;;;;;5.10;2.53;;;;;;;-3.56;94.52;100365.56;5094371;28;20479;-60
2022/01/12 00:38:56;;;;;;;3.77;2.60;;;;;;;-3.59;94.44;100369.72;5093724;28;20488;-69
2022/01/12 00:41:23;;;;;;;5.03;2.83;;;;;;;-3.67;94.74;100362.16;5093813;28;20490;-69
2022/01/12 00:43:57;;;;;;;8.60;3.30;;;;;;;-3.64;95.30;100362.16;5094004;28;20839;-68
2022/01/12 00:46:24;;;;;;;5.97;3.03;;;;;;;-3.61;95.31;100364.69;5094169;28;20470;-69
2022/01/12 00:48:54;;;;;;;5.60;2.70;;;;;;;-3.67;95.79;100353.00;5093830;28;20881;-60
2022/01/12 00:51:21;;;;;;;5.37;2.67;;;;;;;-3.62;96.04;100360.53;5093978;28;20920;-69
2022/01/12 00:53:49;;;;;;;5.67;2.93;;;;;;;-3.73;95.38;100352.13;5093911;28;20853;-60
2022/01/12 00:56:16;;;;;;;6.97;3.93;;;;;;;-3.70;95.32;100352.97;5093794;28;20479;-69
2022/01/12 00:58:43;;;;;;;5.33;2.90;;;;;;;-3.67;96.02;100362.97;5093830;28;20447;-60
2022/01/12 01:01:10;;;;;;;7.83;3.73;;;;;;;-3.68;96.36;100350.50;5093284;28;20472;-60
2022/01/12 01:03:37;;;;;;;10.73;3.57;;;;;;;-3.71;97.13;100355.47;5093691;28;20451;-69
2022/01/12 01:06:06;;;;;;;12.70;4.30;;;;;;;-3.70;97.50;100352.16;5093441;28;20483;-68
2022/01/12 01:08:33;;;;;;;8.17;3.67;;;;;;;-3.65;96.60;100348.00;5093361;28;20452;-69
2022/01/12 01:11:02;;;;;;;6.10;2.83;;;;;;;-3.74;97.47;100336.31;5093536;28;20839;-60
2022/01/12 01:13:35;;;;;;;6.00;3.70;;;;;;;-3.63;97.53;100348.88;5093472;28;20467;-69
2022/01/12 01:16:10;;;;;;;2.37;1.57;;;;;;;-3.66;97.05;100353.84;5093562;28;20861;-69
2022/01/12 01:26:53;;;;;;;7.63;3.67;;;;;;;-3.62;98.48;100355.53;5092948;28;20539;-60
2022/01/12 01:29:21;;;;;;;3.97;2.60;;;;;;;-3.62;98.04;100345.53;5093052;28;20452;-69
2022/01/12 01:31:48;;;;;;;2.60;1.40;;;;;;;-3.54;97.07;100345.59;5093132;28;20459;-60
2022/01/12 01:34:16;;;;;;;8.73;3.90;;;;;;;-3.61;97.61;100347.19;5093373;28;20918;-69
2022/01/12 01:36:45;;;;;;;3.40;1.93;;;;;;;-3.78;97.85;100348.75;5092781;28;20468;-63
2022/01/12 01:39:15;;;;;;;5.83;2.73;;;;;;;-3.71;98.08;100350.47;5092743;28;20494;-69
2022/01/12 01:41:45;;;;;;;4.20;2.30;;;;;;;-3.57;97.98;100353.91;5092954;28;21024;-60
2022/01/12 01:53:17;;;;;;;6.73;3.30;;;;;;;-3.71;98.18;100352.97;5092966;28;20521;-69
2022/01/12 01:55:37;;;;;;;5.13;2.57;;;;;;;-3.70;97.58;100357.13;5092614;28;20459;-69
2022/01/12 01:58:04;;;;;;;6.10;3.00;;;;;;;-3.65;97.62;100363.00;5092551;28;20460;-68
2022/01/12 02:00:35;;;;;;;4.43;2.87;;;;;;;-3.74;97.75;100352.97;5092454;28;20492;-68
2022/01/12 02:03:02;;;;;;;4.27;2.60;;;;;;;-3.84;97.95;100351.22;5092414;28;20551;-60
2022/01/12 02:05:29;;;;;;;5.80;3.30;;;;;;;-3.85;98.31;100360.38;5092425;28;20552;-69
2022/01/12 02:07:55;;;;;;;3.80;2.37;;;;;;;-3.74;99.08;100350.47;5091992;28;20440;-69
2022/01/12 02:10:22;;;;;;;7.33;3.27;;;;;;;-3.73;98.95;100357.13;5092137;28;20452;-64
2022/01/12 02:12:49;;;;;;;6.23;2.80;;;;;;;-3.81;98.79;100353.72;5092181;28;20884;-60
2022/01/12 02:15:19;;;;;;;10.33;4.40;;;;;;;-3.89;98.45;100357.03;5092021;28;20972;-69
2022/01/12 02:18:06;;;;;;;5.17;2.47;;;;;;;-3.87;97.99;100359.53;5092432;28;20513;-69
2022/01/12 02:40:20;;;;;;;6.20;3.03;;;;;;;-3.73;97.65;100372.13;5091526;28;21030;-69
2022/01/12 02:42:56;;;;;;;5.97;3.03;;;;;;;-3.77;97.44;100382.94;5092048;28;20447;-61
2022/01/12 02:50:56;;;;;;;3.37;2.13;;;;;;;-3.70;97.32;100384.63;5091552;28;20461;-60
2022/01/12 02:53:41;;;;;;;6.00;3.17;;;;;;;-3.89;97.89;100392.00;5091237;28;20435;-60
2022/01/12 02:56:11;;;;;;;6.17;3.23;;;;;;;-3.85;98.31;100392.03;5091095;28;20514;-59
2022/01/12 02:58:38;;;;;;;8.30;2.83;;;;;;;-3.77;98.55;100398.75;5091213;28;20452;-69
2022/01/12 03:01:29;;;;;;;8.07;2.73;;;;;;;-3.72;98.65;100398.81;5091452;28;21031;-60
2022/01/12 03:03:58;;;;;;;7.60;2.70;;;;;;;-3.73;98.03;100402.94;5091490;28;20439;-68
2022/01/12 03:06:29;;;;;;;5.10;3.27;;;;;;;-3.67;97.29;100402.13;5091241;28;20528;-69
2022/01/12 03:08:56;;;;;;;9.27;4.30;;;;;;;-3.72;97.68;100403.78;5091355;28;20443;-69
2022/01/12 03:11:26;;;;;;;9.87;3.83;;;;;;;-3.76;97.81;100402.09;5090925;28;21000;-68
2022/01/12 03:13:53;;;;;;;5.07;2.90;;;;;;;-3.70;97.08;100407.13;5091227;28;20448;-69
2022/01/12 03:16:24;;;;;;;5.03;1.77;;;;;;;-3.64;97.91;100404.66;5090782;28;20475;-69
2022/01/12 03:18:53;;;;;;;8.37;4.13;;;;;;;-3.69;97.35;100398.81;5090960;28;20945;-69
2022/01/12 03:21:22;;;;;;;8.93;3.90;;;;;;;-3.73;97.54;100402.09;5090848;28;20499;-69
2022/01/12 03:23:50;;;;;;;5.67;3.17;;;;;;;-3.71;97.04;100400.47;5090821;28;20849;-60
2022/01/12 03:26:17;;;;;;;3.40;1.80;;;;;;;-3.77;97.58;100405.41;5090700;28;20475;-69
2022/01/12 03:28:52;;;;;;;4.93;2.93;;;;;;;-3.71;96.84;100408.78;5091291;28;20855;-60
2022/01/12 03:31:21;;;;;;;8.93;4.07;;;;;;;-3.75;97.49;100408.75;5091085;28;20471;-60
2022/01/12 03:34:00;;;;;;;4.10;2.10;;;;;;;-3.76;96.99;100410.41;5090862;28;20448;-60
2022/01/12 04:09:28;;;;;;;6.63;3.53;;;;;;;-4.21;94.87;100430.88;5090422;28;20435;-59
2022/01/12 04:11:55;;;;;;;7.33;3.07;;;;;;;-4.24;92.60;100435.84;5090348;28;20471;-59
2022/01/12 04:14:22;;;;;;;4.60;2.43;;;;;;;-4.19;91.68;100441.69;5090157;28;20458;-60
2022/01/12 04:16:49;;;;;;;6.77;2.93;;;;;;;-4.16;92.44;100436.72;5090435;28;20860;-68
2022/01/12 04:19:16;;;;;;;5.27;2.90;;;;;;;-4.16;93.31;100441.72;5090389;28;20447;-68
2022/01/12 04:21:48;;;;;;;8.30;3.47;;;;;;;-4.05;92.63;100440.16;5090889;28;20500;-64
2022/01/12 04:24:15;;;;;;;4.83;2.53;;;;;;;-4.08;92.84;100451.78;5090340;28;20999;-60
2022/01/12 04:26:42;;;;;;;7.57;3.10;;;;;;;-4.02;93.32;100450.16;5090742;28;20475;-69
2022/01/12 04:29:08;;;;;;;6.10;3.40;;;;;;;-4.05;92.74;100445.16;5090412;28;20451;-68
2022/01/12 04:31:35;;;;;;;6.70;2.20;;;;;;;-4.16;92.76;100449.19;5090115;28;20490;-69
2022/01/12 04:34:02;;;;;;;5.70;3.30;;;;;;;-4.21;93.55;100454.16;5089954;28;20965;-69
2022/01/12 04:36:29;;;;;;;5.03;2.83;;;;;;;-4.21;93.32;100458.34;5090141;28;20472;-68
2022/01/12 04:38:57;;;;;;;4.37;2.57;;;;;;;-4.05;92.47;100460.13;5090112;28;20455;-60
2022/01/12 04:41:26;;;;;;;5.53;2.57;;;;;;;-4.12;91.25;100459.25;5090180;28;20856;-69
2022/01/12 04:43:56;;;;;;;6.13;3.07;;;;;;;-4.14;91.58;100465.06;5090117;28;20444;-68
2022/01/12 04:46:29;;;;;;;4.93;2.80;;;;;;;-4.02;92.44;100470.16;5090391;28;21042;-66
2022/01/12 04:49:09;;;;;;;6.50;2.27;;;;;;;-4.11;91.51;100465.06;5090084;28;20520;-69
2022/01/12 04:51:37;;;;;;;2.63;1.50;;;;;;;-4.22;90.35;100476.63;5090298;28;21126;-60
2022/01/12 04:54:06;;;;;;;4.30;2.40;;;;;;;-4.09;90.50;100473.44;5089956;28;20448;-70
2022/01/12 04:56:33;;;;;;;5.00;2.87;;;;;;;-4.22;90.95;100477.44;5093578;28;20474;-60
2022/01/12 04:59:01;;;;;;;3.00;1.60;;;;;;;-4.26;91.18;100479.91;5093547;28;20451;-69
2022/01/12 05:01:35;;;;;;;4.60;2.27;;;;;;;-4.17;91.93;100485.00;5093378;28;20495;-60
2022/01/12 05:07:07;;;;;;;4.53;2.43;;;;;;;-4.17;93.00;100487.50;5093885;28;20450;-60
2022/01/12 05:15:16;;;;;;;4.37;2.37;;;;;;;-4.23;91.43;100494.94;5093309;28;21022;-60
2022/01/12 05:17:43;;;;;;;3.77;1.90;;;;;;;-4.28;89.99;100502.34;5093387;28;20490;-60
2022/01/12 05:20:10;;;;;;;2.67;1.63;;;;;;;-4.30;90.84;100503.16;5093068;28;20502;-60
2022/01/12 05:22:37;;;;;;;5.10;2.10;;;;;;;-4.42;90.57;100499.72;5093277;28;20839;-60
2022/01/12 05:25:06;;;;;;;8.80;2.57;;;;;;;-4.41;90.70;100498.06;5093016;28;20448;-68
2022/01/12 05:27:33;;;;;;;4.07;2.60;;;;;;;-4.38;90.46;100506.41;5093090;28;20957;-69
2022/01/12 05:30:00;;;;;;;3.93;2.17;;;;;;;-4.36;90.63;100512.28;5093323;28;20451;-68
2022/01/12 05:32:27;;;;;;;2.27;1.77;;;;;;;-4.34;90.96;100507.28;5092893;28;20460;-68
2022/01/12 05:34:58;;;;;;;5.37;2.60;;;;;;;-4.38;90.64;100518.91;5092843;28;20448;-60
2022/01/12 05:37:25;;;;;;;4.80;1.50;;;;;;;-4.34;90.73;100518.09;5092899;28;20547;-60
2022/01/12 05:39:51;;;;;;;5.37;2.60;;;;;;;-4.46;90.83;100517.97;5092649;28;20466;-60
2022/01/12 05:42:20;;;;;;;5.73;2.83;;;;;;;-4.40;89.96;100517.19;5093024;28;20853;-60
2022/01/12 05:44:47;;;;;;;3.87;1.90;;;;;;;-4.36;88.50;100528.91;5092791;28;20452;-60
2022/01/12 05:47:31;;;;;;;3.87;2.50;;;;;;;-4.43;87.50;100527.16;5092840;28;20472;-60
2022/01/12 05:49:56;;;;;;;4.33;1.67;;;;;;;-4.25;87.88;100532.34;5092780;28;20471;-69
2022/01/12 05:52:23;;;;;;;3.20;2.10;;;;;;;-4.26;87.50;100534.84;5092498;28;20463;-61
2022/01/12 05:54:50;;;;;;;2.50;1.50;;;;;;;-4.26;87.11;100544.84;5092592;28;20198;-60
2022/01/12 05:57:17;;;;;;;4.57;2.00;;;;;;;-4.30;88.01;100543.09;5092380;28;20467;-59
2022/01/12 05:59:45;;;;;;;2.10;1.20;;;;;;;-4.28;88.00;100546.47;5092342;28;20489;-59
2022/01/12 06:02:12;;;;;;;5.37;2.53;;;;;;;-4.49;88.19;100545.38;5092348;28;20495;-60
2022/01/12 06:04:40;;;;;;;4.23;2.30;;;;;;;-4.50;89.35;100551.22;5092249;28;20900;-60
2022/01/12 06:07:07;;;;;;;3.10;2.17;;;;;;;-4.37;89.66;100558.00;5092280;28;20538;-69
2022/01/12 06:09:34;;;;;;;5.93;2.47;;;;;;;-4.48;89.51;100559.56;5092147;28;20451;-59
2022/01/12 06:12:01;;;;;;;4.30;1.77;;;;;;;-4.47;89.17;100565.38;5091972;28;21008;-60
2022/01/12 06:14:28;;;;;;;1.83;1.60;;;;;;;-4.36;86.70;100559.72;5092292;28;20448;-60
2022/01/12 06:16:56;;;;;;;5.50;2.90;;;;;;;-4.41;87.95;100553.81;5091943;28;20471;-69
2022/01/12 06:19:22;;;;;;;3.90;2.30;;;;;;;-4.56;86.42;100561.13;5091909;28;20458;-60
2022/01/12 06:21:49;;;;;;;2.97;1.83;;;;;;;-4.36;86.69;100572.19;5091800;28;20498;-60
2022/01/12 06:24:16;;;;;;;5.57;2.83;;;;;;;-4.42;86.53;100574.63;5092241;28;20873;-60
2022/01/12 06:26:44;;;;;;;4.07;2.30;;;;;;;-4.42;85.59;100572.13;5092456;28;20472;-60
2022/01/12 06:29:27;;;;;;;1.37;1.27;;;;;;;-4.46;85.27;100582.88;5092114;28;20532;-68
2022/01/12 06:31:57;;;;;;;3.07;1.97;;;;;;;-4.40;85.53;100587.09;5091805;28;20474;-68
2022/01/12 06:34:24;;;;;;;3.33;1.60;;;;;;;-4.40;84.48;100577.94;5091596;28;20961;-60
2022/01/12 06:36:51;;;;;;;5.37;2.27;;;;;;;-4.44;85.71;100576.25;5091887;28;20479;-60
2022/01/12 06:39:20;;;;;;;4.33;2.17;;;;;;;-4.50;85.51;100586.16;5091777;28;20452;-60
2022/01/12 06:41:48;;;;;;;3.87;2.30;;;;;;;-4.40;85.71;100592.09;5091829;28;20498;-69
2022/01/12 06:44:17;;;;;;;5.97;2.90;;;;;;;-4.38;86.22;100601.28;5091796;28;21117;-60
2022/01/12 06:46:44;;;;;;;5.23;2.50;;;;;;;-4.39;86.25;100602.13;5092056;28;20849;-69
2022/01/12 06:49:13;;;;;;;3.87;2.30;;;;;;;-4.30;85.06;100606.38;5091456;28;20776;-59
2022/01/12 06:51:41;;;;;;;4.13;2.50;;;;;;;-4.39;86.40;100594.63;5091402;28;20901;-70
2022/01/12 06:54:08;;;;;;;6.50;3.63;;;;;;;-4.37;87.47;100602.13;5091402;28;20447;-60
2022/01/12 06:56:34;;;;;;;7.50;3.60;;;;;;;-4.44;86.39;100606.19;5091467;28;20484;-69
2022/01/12 06:59:01;;;;;;;5.57;2.63;;;;;;;-4.26;86.78;100609.75;5091379;28;20436;-61
2022/01/12 07:01:28;;;;;;;4.73;3.13;;;;;;;-4.43;87.46;100607.88;5091540;28;20506;-60
2022/01/12 07:03:55;;;;;;;8.57;4.27;;;;;;;-4.18;87.58;100604.03;5091115;28;20448;-69
2022/01/12 07:06:24;;;;;;;12.17;5.30;;;;;;;-4.22;87.36;100616.44;5091728;28;20480;-69
2022/01/12 07:08:51;;;;;;;10.47;4.20;;;;;;;-4.15;87.69;100615.72;5091467;28;20880;-69
2022/01/12 07:11:17;;;;;;;9.87;3.77;;;;;;;-4.39;87.00;100624.59;5091367;28;20478;-63
2022/01/12 07:13:45;;;;;;;5.50;2.77;;;;;;;-4.36;86.86;100629.63;5091199;28;20660;-59
2022/01/12 07:16:12;;;;;;;6.90;3.03;;;;;;;-4.35;86.13;100636.28;5091327;28;20476;-60
2022/01/12 07:18:39;;;;;;;3.97;2.07;;;;;;;-4.16;84.05;100631.50;5090774;28;20443;-68
2022/01/12 07:21:06;;;;;;;5.20;2.20;;;;;;;-4.15;84.48;100633.19;5091065;28;21031;-69
2022/01/12 07:23:34;;;;;;;7.07;2.63;;;;;;;-4.33;83.77;100639.63;5090840;28;20447;-69
2022/01/12 07:26:01;;;;;;;7.90;3.80;;;;;;;-4.14;83.93;100649.84;5091096;28;20826;-60
2022/01/12 07:28:28;;;;;;;4.13;2.17;;;;;;;-3.97;83.89;100648.41;5091219;28;20488;-65
2022/01/12 07:30:55;;;;;;;6.40;2.60;;;;;;;-4.42;83.59;100644.50;5090977;28;20480;-69
2022/01/12 07:33:22;;;;;;;6.73;2.37;;;;;;;-4.32;84.19;100656.28;5090725;28;20448;-60
2022/01/12 07:35:49;;;;;;;5.30;3.00;;;;;;;-4.40;84.02;100657.84;5090832;28;20546;-60
2022/01/12 07:38:16;;;;;;;5.50;2.50;;;;;;;-4.28;84.60;100661.31;5090772;28;20444;-60
2022/01/12 07:40:44;;;;;;;4.10;2.83;;;;;;;-4.25;84.47;100656.38;5090761;28;21186;-69
2022/01/12 07:43:11;;;;;;;5.53;3.33;;;;;;;-4.10;84.68;100657.41;5090919;28;20957;-69
2022/01/12 07:45:38;;;;;;;4.90;2.23;;;;;;;-4.25;84.32;100661.34;5090678;28;20480;-68
2022/01/12 07:48:06;;;;;;;8.93;3.83;;;;;;;-4.05;83.94;100659.13;5090658;28;20452;-60
2022/01/12 07:50:33;;;;;;;5.23;2.17;;;;;;;-4.20;83.14;100659.75;5090626;28;20490;-64
2022/01/12 07:52:59;;;;;;;6.93;3.30;;;;;;;-4.32;84.43;100657.94;5090878;28;20859;-61
2022/01/12 07:55:27;;;;;;;5.60;3.17;;;;;;;-4.09;83.24;100668.25;5090458;28;20456;-68
2022/01/12 07:57:55;;;;;;;6.83;3.97;;;;;;;-4.13;83.96;100671.50;5090529;28;20448;-60
2022/01/12 08:00:22;;;;;;;10.90;4.67;;;;;;;-4.02;84.12;100679.13;5090300;28;20982;-60
2022/01/12 08:02:50;;;;;;;4.63;2.33;;;;;;;-3.95;83.18;100666.75;5090515;28;20495;-60
2022/01/12 08:05:17;;;;;;;9.57;3.73;;;;;;;-3.89;83.84;100666.81;5090566;28;20456;-60
2022/01/12 08:07:45;;;;;;;3.67;2.50;;;;;;;-4.08;82.04;100669.91;5090600;28;20476;-60
2022/01/12 08:10:12;;;;;;;7.37;3.60;;;;;;;-4.11;82.33;100674.88;5090594;28;20455;-68
2022/01/12 08:12:39;;;;;;;7.80;3.60;;;;;;;-3.99;83.65;100680.00;5090365;28;21110;-61
2022/01/12 08:15:09;;;;;;;7.07;3.20;;;;;;;-3.94;83.48;100667.59;5090455;28;20456;-69
2022/01/12 08:17:37;;;;;;;7.53;3.63;;;;;;;-4.07;82.18;100675.75;5090352;28;21001;-60
2022/01/12 08:20:05;;;;;;;8.40;2.83;;;;;;;-4.04;82.68;100671.66;5090258;28;20466;-60
2022/01/12 08:22:33;;;;;;;5.70;3.27;;;;;;;-4.05;82.64;100689.09;5090325;28;20476;-60
2022/01/12 08:24:59;;;;;;;5.30;3.30;;;;;;;-4.06;81.87;100690.75;5090414;28;20836;-69
2022/01/12 08:27:26;;;;;;;4.83;3.30;;;;;;;-4.05;81.56;100684.94;5090131;28;20471;-69
2022/01/12 08:29:59;;;;;;;9.40;3.53;;;;;;;-4.13;82.15;100686.47;5091303;28;20452;-69
2022/01/12 08:32:27;;;;;;;6.33;3.07;;;;;;;-4.19;81.81;100694.75;5094069;28;20884;-60
2022/01/12 08:34:54;;;;;;;10.03;4.50;;;;;;;-3.84;82.87;100699.34;5094066;28;20456;-69
2022/01/12 08:37:21;;;;;;;10.63;5.13;;;;;;;-3.90;83.01;100700.13;5094402;28;20495;-69
2022/01/12 08:39:48;;;;;;;12.50;5.60;;;;;;;-3.73;84.36;100701.97;5094091;28;20451;-60
2022/01/12 08:42:15;;;;;;;9.50;5.07;;;;;;;-3.55;83.36;100706.34;5093899;28;20851;-69
2022/01/12 08:44:42;;;;;;;7.33;3.83;;;;;;;-3.81;84.79;100698.53;5093883;28;20447;-69
2022/01/12 08:47:09;;;;;;;7.67;3.67;;;;;;;-3.65;85.11;100705.41;5093643;28;20487;-61
2022/01/12 08:49:37;;;;;;;9.20;3.80;;;;;;;-3.81;84.23;100698.53;5093863;28;20845;-69
2022/01/12 08:52:05;;;;;;;10.93;5.47;;;;;;;-3.57;84.22;100701.34;5093655;28;20992;-70
2022/01/12 08:54:32;;;;;;;9.07;4.63;;;;;;;-3.47;83.33;100700.63;5093933;28;20464;-61
2022/01/12 08:56:59;;;;;;;6.77;3.63;;;;;;;-3.42;83.27;100694.00;5093757;28;20478;-69
2022/01/12 08:59:26;;;;;;;8.27;4.03;;;;;;;-3.70;85.04;100702.84;5093462;28;20439;-69
2022/01/12 09:01:53;;;;;;;9.67;5.17;;;;;;;-3.45;84.48;100708.16;5093332;28;20501;-67
2022/01/12 09:04:21;;;;;;;10.53;3.80;;;;;;;-3.55;84.11;100709.72;5093502;28;20443;-60
2022/01/12 09:06:50;;;;;;;6.60;3.50;;;;;;;-3.75;85.32;100708.63;5093499;28;20472;-68
2022/01/12 09:09:16;;;;;;;22.30;9.57;;;;;;;-3.48;83.66;100710.63;5093443;28;20444;-69
2022/01/12 09:11:43;;;;;;;10.40;5.10;;;;;;;-3.42;83.96;100709.00;5093425;28;20906;-69
2022/01/12 09:14:10;;;;;;;7.97;3.73;;;;;;;-3.46;82.01;100702.31;5093358;28;20455;-61
2022/01/12 09:16:37;;;;;;;9.17;4.50;;;;;;;-3.26;82.34;100694.16;5093567;28;20645;-60
2022/01/12 09:19:04;;;;;;;6.50;3.43;;;;;;;-3.28;82.23;100695.81;5093217;28;20531;-60
2022/01/12 09:21:31;;;;;;;8.37;3.90;;;;;;;-3.36;83.08;100698.25;5092973;28;20494;-60
2022/01/12 09:23:59;;;;;;;8.80;4.27;;;;;;;-3.15;82.42;100692.59;5093133;28;20436;-60
2022/01/12 09:26:26;;;;;;;9.43;4.20;;;;;;;-3.25;82.42;100690.84;5093149;28;20495;-69
2022/01/12 09:28:53;;;;;;;11.17;5.60;;;;;;;-2.93;82.20;100697.81;5092943;28;20443;-60
2022/01/12 09:31:20;;;;;;;10.47;4.30;;;;;;;-3.06;80.98;100707.69;5093328;28;20475;-60
2022/01/12 09:33:49;;;;;;;8.33;4.23;;;;;;;-3.33;81.80;100702.44;5093078;28;20440;-60
2022/01/12 09:36:16;;;;;;;10.67;4.00;;;;;;;-3.13;81.69;100703.47;5092826;28;21051;-69
2022/01/12 09:38:43;;;;;;;10.67;6.17;;;;;;;-3.05;82.24;100684.38;5093029;28;20897;-60
2022/01/12 09:41:11;;;;;;;17.27;6.33;;;;;;;-3.28;83.24;100685.81;5092259;28;20484;-60
2022/01/12 09:43:40;;;;;;;11.00;4.70;;;;;;;-3.42;83.04;100684.00;5092934;28;20444;-60
2022/01/12 09:46:08;;;;;;;9.60;3.90;;;;;;;-3.47;83.17;100688.13;5092649;28;20562;-60
2022/01/12 09:48:36;;;;;;;9.63;4.23;;;;;;;-3.33;81.63;100697.44;5092691;28;20444;-60
2022/01/12 09:51:07;;;;;;;9.73;4.47;;;;;;;-3.38;80.95;100684.03;5092817;28;20862;-67
2022/01/12 09:53:35;;;;;;;7.77;4.40;;;;;;;-3.30;80.53;100689.97;5092631;28;20531;-69
2022/01/12 09:56:07;;;;;;;7.40;3.90;;;;;;;-3.57;82.26;100691.34;5092698;28;20467;-60
2022/01/12 09:58:35;;;;;;;9.43;3.87;;;;;;;-3.36;83.16;100677.41;5092545;28;20437;-69
2022/01/12 10:01:04;;;;;;;10.90;5.47;;;;;;;-3.28;83.22;100676.66;5092541;28;20475;-68
2022/01/12 10:03:31;;;;;;;10.83;5.43;;;;;;;-3.27;83.08;100674.97;5092363;28;20457;-61
2022/01/12 10:05:57;;;;;;;8.60;4.20;;;;;;;-3.23;81.05;100684.19;5092245;28;20474;-63
2022/01/12 10:08:24;;;;;;;7.03;3.60;;;;;;;-3.41;81.85;100685.69;5092211;28;20436;-60
2022/01/12 10:11:04;;;;;;;8.43;4.57;;;;;;;-3.52;81.39;100682.25;5092224;28;20575;-60
2022/01/12 10:13:31;;;;;;;11.87;5.90;;;;;;;-3.18;82.89;100675.06;5092741;28;20451;-60
2022/01/12 10:16:11;;;;;;;19.07;8.93;;;;;;;-2.99;82.35;100668.56;5092045;28;20460;-60
2022/01/12 10:18:48;;;;;;;13.57;7.33;;;;;;;-2.87;81.46;100667.84;5092248;28;20501;-60
2022/01/12 10:21:29;;;;;;;9.40;5.03;;;;;;;-2.76;79.57;100656.25;5092437;28;20472;-60
2022/01/12 10:24:02;;;;;;;9.03;4.80;;;;;;;-2.80;80.07;100664.53;5091947;28;20845;-69
2022/01/12 10:26:34;;;;;;;8.00;3.83;;;;;;;-2.87;80.95;100667.84;5092299;28;20467;-60
2022/01/12 10:29:11;;;;;;;5.20;3.00;;;;;;;-2.89;80.35;100664.47;5092107;28;20451;-60
2022/01/12 10:31:48;;;;;;;9.53;4.73;;;;;;;-3.14;81.32;100663.41;5092144;28;20479;-64
2022/01/12 10:34:15;;;;;;;6.70;3.20;;;;;;;-3.00;79.69;100662.72;5092241;28;20428;-60
2022/01/12 10:36:43;;;;;;;8.97;4.17;;;;;;;-2.75;79.70;100662.91;5091898;28;20470;-60
2022/01/12 10:39:12;;;;;;;11.33;5.03;;;;;;;-2.45;80.38;100657.28;5091640;28;20471;-69
2022/01/12 10:41:52;;;;;;;13.73;6.47;;;;;;;-2.22;79.63;100659.91;5091402;28;20913;-69
2022/01/12 10:44:23;;;;;;;17.17;8.50;;;;;;;-2.20;78.25;100668.28;5091706;28;20918;-59
2022/01/12 10:47:03;;;;;;;30.37;13.40;;;;;;;-2.07;77.98;100657.47;5091492;28;20464;-60
2022/01/12 10:49:33;;;;;;;12.13;4.77;;;;;;;-2.15;77.69;100666.66;5091524;28;20462;-69
2022/01/12 10:52:00;;;;;;;12.60;5.50;;;;;;;-1.93;75.80;100661.72;5091274;28;20487;-60
2022/01/12 10:54:27;;;;;;;9.20;4.07;;;;;;;-2.36;75.75;100653.97;5091151;28;20444;-61
2022/01/12 10:56:53;;;;;;;13.07;4.63;;;;;;;-2.38;77.73;100648.16;5091203;28;21015;-67
2022/01/12 10:59:22;;;;;;;9.90;4.40;;;;;;;-2.51;78.68;100642.22;5091432;28;20448;-60
2022/01/12 11:01:49;;;;;;;12.60;6.10;;;;;;;-2.18;79.78;100654.09;5091019;28;20495;-60
2022/01/12 11:04:20;;;;;;;13.83;7.73;;;;;;;-2.09;77.23;100658.31;5091852;28;20448;-68
2022/01/12 11:06:48;;;;;;;13.20;7.53;;;;;;;-1.96;75.32;100661.69;5091307;28;20513;-69
2022/01/12 11:09:17;;;;;;;11.87;7.07;;;;;;;-1.99;76.10;100661.69;5091269;28;20925;-68
2022/01/12 11:11:44;;;;;;;18.57;8.93;;;;;;;-2.15;77.65;100659.13;5091503;28;20472;-60
2022/01/12 11:14:11;;;;;;;13.97;5.40;;;;;;;-2.30;77.88;100661.53;5091034;28;20948;-60
2022/01/12 11:16:39;;;;;;;18.63;8.13;;;;;;;-2.30;77.78;100656.50;5090909;28;20536;-61
2022/01/12 11:19:09;;;;;;;15.67;6.30;;;;;;;-2.02;77.48;100651.66;5091018;28;20447;-68
2022/01/12 11:21:41;;;;;;;12.10;5.90;;;;;;;-1.89;78.18;100645.84;5090832;28;20854;-69
2022/01/12 11:24:12;;;;;;;84.73;31.40;;;;;;;-2.21;76.61;100636.56;5091088;28;20436;-69
2022/01/12 11:26:48;;;;;;;38.60;16.13;;;;;;;-2.17;77.15;100653.25;5090846;28;20467;-69
2022/01/12 11:29:24;;;;;;;15.40;6.53;;;;;;;-2.18;77.58;100658.25;5091174;28;20501;-68
2022/01/12 11:31:51;;;;;;;11.50;5.27;;;;;;;-1.86;76.56;100660.94;5090706;28;20464;-69
2022/01/12 11:34:18;;;;;;;13.30;4.87;;;;;;;-1.60;75.38;100661.84;5091126;28;20439;-67
2022/01/12 11:36:47;;;;;;;20.97;7.87;;;;;;;-1.48;72.40;100650.16;5090844;28;20989;-59
2022/01/12 11:39:17;;;;;;;32.97;11.60;;;;;;;-1.69;74.63;100646.75;5091186;28;20834;-69
2022/01/12 11:41:45;;;;;;;24.30;8.40;;;;;;;-1.81;75.50;100651.72;5091101;28;20488;-68
2022/01/12 11:44:15;;;;;;;12.83;5.43;;;;;;;-1.66;76.89;100654.31;5090837;28;20451;-60
2022/01/12 11:46:45;;;;;;;24.07;9.47;;;;;;;-1.44;75.08;100654.34;5091533;28;20831;-69
2022/01/12 11:49:13;;;;;;;24.90;9.70;;;;;;;-1.65;75.37;100658.47;5090781;28;20444;-68
2022/01/12 11:51:42;;;;;;;12.37;5.40;;;;;;;-1.51;73.61;100666.03;5090665;28;21000;-60
2022/01/12 11:54:12;;;;;;;15.67;6.27;;;;;;;-1.50;74.96;100666.88;5090555;28;20973;-59
2022/01/12 11:56:50;;;;;;;14.37;5.73;;;;;;;-1.34;74.94;100661.03;5090940;28;20502;-69
2022/01/12 11:59:17;;;;;;;27.40;10.37;;;;;;;-1.19;74.40;100658.56;5090643;28;20444;-68
2022/01/12 12:01:48;;;;;;;11.63;5.33;;;;;;;-1.07;71.02;100656.91;5090485;28;20480;-60
2022/01/12 12:04:24;;;;;;;27.53;10.63;;;;;;;-1.25;71.04;100656.06;5092676;28;20459;-68
2022/01/12 12:07:03;;;;;;;38.63;14.47;;;;;;;-1.49;73.91;100653.50;5094703;28;20487;-60
2022/01/12 12:09:42;;;;;;;51.87;17.80;;;;;;;-1.43;75.01;100658.50;5094866;28;20431;-61
2022/01/12 12:12:14;;;;;;;12.80;5.90;;;;;;;-1.89;74.78;100644.19;5094616;28;20857;-68
2022/01/12 12:14:41;;;;;;;10.13;4.90;;;;;;;-1.94;74.90;100642.50;5094472;28;20459;-60
2022/01/12 12:17:09;;;;;;;14.13;7.13;;;;;;;-1.78;74.65;100646.72;5094295;28;20464;-60
2022/01/12 12:19:37;;;;;;;11.10;5.87;;;;;;;-1.66;74.38;100651.81;5094340;28;20491;-68
2022/01/12 12:22:15;;;;;;;11.40;5.53;;;;;;;-1.86;75.78;100648.38;5094530;28;20472;-67
2022/01/12 12:24:45;;;;;;;13.27;5.63;;;;;;;-1.65;74.19;100653.47;5094529;28;20689;-59
2022/01/12 12:27:17;;;;;;;14.17;6.20;;;;;;;-1.66;74.42;100650.94;5094139;28;20476;-68
2022/01/12 12:29:45;;;;;;;9.73;4.77;;;;;;;-1.57;76.51;100650.13;5094595;28;20463;-59
2022/01/12 12:32:13;;;;;;;14.33;5.57;;;;;;;-1.74;75.81;100657.63;5094890;28;20480;-68
2022/01/12 12:34:41;;;;;;;12.93;5.93;;;;;;;-1.95;75.51;100649.19;5094154;28;20893;-59
2022/01/12 12:37:10;;;;;;;12.33;5.73;;;;;;;-2.22;76.17;100649.88;5094318;28;20921;-67
2022/01/12 12:39:39;;;;;;;30.10;12.00;;;;;;;-2.15;76.79;100645.72;5094027;28;20448;-67
2022/01/12 12:42:16;;;;;;;11.83;5.77;;;;;;;-2.25;77.53;100649.88;5093825;28;20475;-68
2022/01/12 12:44:43;;;;;;;9.33;3.97;;;;;;;-1.96;77.64;100656.69;5094003;28;20451;-68
2022/01/12 12:47:13;;;;;;;16.33;7.37;;;;;;;-1.77;76.13;100653.44;5094037;28;20538;-59
2022/01/12 12:49:50;;;;;;;14.07;6.07;;;;;;;-1.95;76.26;100653.34;5093915;28;20460;-67
2022/01/12 12:52:24;;;;;;;13.27;5.23;;;;;;;-2.17;77.62;100653.25;5093879;28;20470;-68
2022/01/12 12:54:51;;;;;;;16.83;6.53;;;;;;;-2.34;77.99;100660.69;5093878;28;20983;-59
2022/01/12 12:57:21;;;;;;;27.23;9.17;;;;;;;-2.46;77.51;100657.28;5093582;28;20478;-67
2022/01/12 12:59:49;;;;;;;21.40;7.10;;;;;;;-2.40;77.63;100660.66;5093831;28;20462;-68